Time;durP1;ratioP1;P1;durP2;ratioP2;P2;SDS_P1;SDS_P2;PMS_P1;PMS_P2;Temp;Humidity;BMP_temperature;BMP_pressure;BME280_temperature;BME280_humidity;BME280_pressure;Samples;Min_cycle;Max_cycle;Signal;HPM_P1;HPM_P2
2022/01/28 00:00:36;;;;;;;21.63;3.97;;;5.70;99.90;;;;;;5060997;28;20617;-44
2022/01/28 00:03:07;;;;;;;18.30;3.67;;;5.70;99.90;;;;;;5061916;28;20195;-47
2022/01/28 00:05:37;;;;;;;16.20;3.03;;;5.60;99.90;;;;;;5046962;28;20230;-42
2022/01/28 00:08:06;;;;;;;12.77;2.73;;;5.60;99.90;;;;;;5060157;28;20247;-41
2022/01/28 00:10:34;;;;;;;16.43;3.13;;;5.60;99.90;;;;;;5054516;28;20211;-45
2022/01/28 00:13:16;;;;;;;7.33;2.10;;;5.60;99.90;;;;;;5054945;28;20921;-44
2022/01/28 00:15:53;;;;;;;12.63;2.67;;;5.50;99.90;;;;;;5054797;28;20221;-45
2022/01/28 00:38:03;;;;;;;19.57;3.70;;;5.40;99.90;;;;;;5043411;28;20240;-40
2022/01/28 00:40:31;;;;;;;19.93;3.93;;;5.40;99.90;;;;;;5061300;28;20732;-42
2022/01/28 00:42:58;;;;;;;18.97;3.43;;;5.40;99.90;;;;;;5063622;28;20206;-43
2022/01/28 00:45:24;;;;;;;15.07;3.20;;;5.40;99.90;;;;;;5065873;28;20226;-44
2022/01/28 00:47:51;;;;;;;14.27;2.97;;;5.40;99.90;;;;;;5062351;28;20202;-43
2022/01/28 00:50:18;;;;;;;14.93;3.20;;;5.40;99.90;;;;;;5066196;28;20202;-44
2022/01/28 00:52:46;;;;;;;12.97;3.23;;;5.40;99.90;;;;;;5048043;28;20203;-45
2022/01/28 00:55:14;;;;;;;14.67;3.70;;;5.40;99.90;;;;;;5065771;28;20199;-43
2022/01/28 00:57:41;;;;;;;17.63;3.40;;;5.40;99.90;;;;;;5062169;28;20589;-43
2022/01/28 01:00:10;;;;;;;12.27;2.20;;;5.40;99.90;;;;;;5065924;28;20682;-44
2022/01/28 01:02:38;;;;;;;13.57;2.70;;;5.40;99.90;;;;;;5062950;28;20206;-42
2022/01/28 01:05:05;;;;;;;16.50;3.60;;;5.40;99.90;;;;;;5061307;28;20214;-48
2022/01/28 01:07:32;;;;;;;15.60;3.07;;;5.40;99.90;;;;;;5049360;28;20691;-43
2022/01/28 01:10:00;;;;;;;18.70;4.90;;;5.40;99.90;;;;;;5063680;28;20191;-43
2022/01/28 01:12:29;;;;;;;12.57;3.17;;;5.40;99.90;;;;;;5065274;28;20198;-42
2022/01/28 01:14:56;;;;;;;19.93;3.07;;;5.40;99.90;;;;;;5062036;28;20852;-44
2022/01/28 01:17:31;;;;;;;18.47;3.13;;;5.40;99.90;;;;;;5065964;28;20214;-43
2022/01/28 01:20:12;;;;;;;16.83;4.20;;;5.40;99.90;;;;;;5063335;28;20213;-44
2022/01/28 01:22:40;;;;;;;17.27;2.73;;;5.40;99.90;;;;;;5048122;28;20570;-44
2022/01/28 01:25:17;;;;;;;17.10;2.67;;;5.40;99.90;;;;;;5065115;28;20229;-45
2022/01/28 01:27:48;;;;;;;17.93;3.47;;;5.40;99.90;;;;;;5061382;28;20260;-43
2022/01/28 01:30:17;;;;;;;18.60;3.03;;;5.40;99.90;;;;;;5065590;28;20266;-44
2022/01/28 01:32:44;;;;;;;18.20;2.77;;;5.40;99.90;;;;;;5061526;28;20376;-44
2022/01/28 01:35:11;;;;;;;22.70;3.73;;;5.40;99.90;;;;;;5058873;28;20201;-43
2022/01/28 01:37:38;;;;;;;15.03;3.33;;;5.40;99.90;;;;;;5046435;28;20682;-41
2022/01/28 01:40:08;;;;;;;20.07;3.30;;;5.40;99.90;;;;;;5064449;28;20213;-45
2022/01/28 01:42:42;;;;;;;18.77;3.70;;;5.40;99.90;;;;;;5063286;28;20556;-44
2022/01/28 01:53:21;;;;;;;12.63;2.67;;;5.30;99.90;;;;;;5050742;28;20202;-43
2022/01/28 01:55:50;;;;;;;14.43;3.20;;;5.20;99.90;;;;;;5060614;28;20988;-45
2022/01/28 01:58:20;;;;;;;21.23;3.97;;;5.20;99.90;;;;;;5064833;28;20685;-43
2022/01/28 02:00:47;;;;;;;16.53;3.67;;;5.20;99.90;;;;;;5060833;28;20187;-43
2022/01/28 02:03:13;;;;;;;16.00;3.30;;;5.30;99.90;;;;;;5064913;28;20206;-44
2022/01/28 02:05:40;;;;;;;17.30;2.63;;;5.30;99.90;;;;;;5054135;28;20227;-44
2022/01/28 02:08:07;;;;;;;18.77;2.50;;;5.30;99.90;;;;;;5049810;28;20206;-42
2022/01/28 02:10:34;;;;;;;15.57;2.63;;;5.40;99.90;;;;;;5062315;28;20206;-45
2022/01/28 02:13:02;;;;;;;13.67;3.90;;;5.40;99.90;;;;;;5063141;28;20187;-46
2022/01/28 02:15:29;;;;;;;15.63;2.50;;;5.40;99.90;;;;;;5063356;28;20215;-42
2022/01/28 02:17:58;;;;;;;14.00;2.70;;;5.40;99.90;;;;;;5061858;28;20198;-42
2022/01/28 02:20:31;;;;;;;12.53;2.67;;;5.40;99.90;;;;;;5064012;28;20194;-42
2022/01/28 02:22:58;;;;;;;10.97;2.40;;;5.40;99.90;;;;;;5048601;28;20473;-42
2022/01/28 02:25:27;;;;;;;8.20;1.97;;;5.40;99.90;;;;;;5063565;28;20219;-42
2022/01/28 02:27:55;;;;;;;13.37;2.70;;;5.40;99.90;;;;;;5061107;28;20226;-43
2022/01/28 02:30:22;;;;;;;9.50;2.07;;;5.40;99.90;;;;;;5064199;28;20286;-42
2022/01/28 02:32:50;;;;;;;13.93;2.43;;;5.30;99.90;;;;;;5060363;28;20201;-44
2022/01/28 02:35:17;;;;;;;14.93;2.70;;;5.30;99.90;;;;;;5063859;28;20203;-45
2022/01/28 02:37:46;;;;;;;22.40;2.33;;;5.20;99.90;;;;;;5045662;28;20213;-43
2022/01/28 02:40:13;;;;;;;14.87;3.03;;;5.10;99.90;;;;;;5063979;28;20204;-44
2022/01/28 02:42:52;;;;;;;14.73;2.70;;;5.10;99.90;;;;;;5060573;28;20295;-41
2022/01/28 02:45:26;;;;;;;14.33;3.43;;;5.10;99.90;;;;;;5058005;28;20309;-42
2022/01/28 02:47:58;;;;;;;8.27;2.43;;;5.10;99.90;;;;;;5055481;28;20197;-48
2022/01/28 02:50:27;;;;;;;13.57;2.23;;;5.10;99.90;;;;;;5063793;28;20288;-45
2022/01/28 02:53:04;;;;;;;13.40;2.47;;;5.10;99.90;;;;;;5045317;28;20211;-43
2022/01/28 02:55:37;;;;;;;13.50;2.37;;;5.10;99.90;;;;;;5058873;28;20214;-44
2022/01/28 02:58:16;;;;;;;10.83;2.50;;;5.10;99.90;;;;;;5059858;28;20234;-44
2022/01/28 03:00:43;;;;;;;11.80;2.60;;;5.20;99.90;;;;;;5059836;28;20261;-43
2022/01/28 03:03:10;;;;;;;17.17;3.50;;;5.20;99.90;;;;;;5063656;28;20620;-43
2022/01/28 03:05:37;;;;;;;13.60;3.20;;;5.20;99.90;;;;;;5056243;28;20767;-43
2022/01/28 03:08:06;;;;;;;12.37;2.50;;;5.20;99.90;;;;;;5055650;28;20199;-46
2022/01/28 03:10:44;;;;;;;12.33;2.97;;;5.30;99.90;;;;;;5047453;28;20803;-45
2022/01/28 03:13:28;;;;;;;12.83;2.57;;;5.30;99.90;;;;;;5057554;28;20679;-43
2022/01/28 03:16:06;;;;;;;15.37;2.53;;;5.30;99.90;;;;;;5060508;28;20219;-43
2022/01/28 03:18:42;;;;;;;14.37;2.57;;;5.30;99.90;;;;;;5061633;28;20255;-41
2022/01/28 03:21:20;;;;;;;15.50;2.50;;;5.30;99.90;;;;;;5063665;28;20210;-40
2022/01/28 03:23:49;;;;;;;14.53;3.17;;;5.30;99.90;;;;;;5052919;28;20197;-44
2022/01/28 03:26:16;;;;;;;18.47;2.80;;;5.30;99.90;;;;;;5043386;28;20663;-42
2022/01/28 03:28:43;;;;;;;18.63;2.93;;;5.20;99.90;;;;;;5059255;28;20570;-43
2022/01/28 03:31:10;;;;;;;11.90;2.67;;;5.10;99.90;;;;;;5057154;28;20888;-41
2022/01/28 03:33:37;;;;;;;14.57;2.63;;;5.00;99.90;;;;;;5050117;28;20214;-41
2022/01/28 03:36:06;;;;;;;16.90;3.13;;;5.00;99.90;;;;;;5055202;28;20214;-42
2022/01/28 03:38:34;;;;;;;11.97;2.70;;;5.00;99.90;;;;;;5054936;28;20208;-44
2022/01/28 03:41:02;;;;;;;16.90;3.07;;;5.00;99.90;;;;;;5046728;28;20214;-44
2022/01/28 03:43:29;;;;;;;16.63;3.20;;;5.00;99.90;;;;;;5061855;28;20225;-40
2022/01/28 03:45:55;;;;;;;10.23;3.17;;;5.00;99.90;;;;;;5060032;28;20219;-42
2022/01/28 03:48:22;;;;;;;11.67;2.80;;;5.00;99.90;;;;;;5063384;28;20205;-41
2022/01/28 03:50:51;;;;;;;9.53;2.47;;;5.00;99.90;;;;;;5052670;28;20220;-40
2022/01/28 03:53:19;;;;;;;15.83;3.10;;;5.00;99.90;;;;;;5057071;28;20198;-45
2022/01/28 03:55:46;;;;;;;17.10;3.37;;;5.00;99.90;;;;;;5044160;28;20313;-40
2022/01/28 03:58:15;;;;;;;16.53;2.80;;;5.00;99.90;;;;;;5063029;28;20199;-44
2022/01/28 04:00:42;;;;;;;14.70;2.57;;;5.10;99.90;;;;;;5059276;28;20655;-41
2022/01/28 04:03:12;;;;;;;18.07;3.73;;;5.00;99.90;;;;;;5062812;28;20214;-42
2022/01/28 04:11:25;;;;;;;12.13;3.20;;;5.00;99.90;;;;;;5059406;28;20233;-42
2022/01/28 04:11:36;;;;;;;14.67;2.67;;;5.00;99.90;;;;;;5052836;28;20194;-46
2022/01/28 04:14:11;;;;;;;14.10;2.97;;;4.90;99.90;;;;;;5054306;28;20199;-44
2022/01/28 04:19:20;;;;;;;14.10;2.90;;;4.90;99.90;;;;;;5049952;28;20229;-42
2022/01/28 04:21:47;;;;;;;18.90;2.97;;;4.90;99.90;;;;;;5062698;28;20191;-43
2022/01/28 04:24:15;;;;;;;16.50;3.33;;;4.90;99.90;;;;;;5066722;28;20660;-42
2022/01/28 04:26:42;;;;;;;11.87;3.03;;;5.00;99.90;;;;;;5062430;28;20777;-42
2022/01/28 04:29:11;;;;;;;19.37;3.10;;;5.00;99.90;;;;;;5052331;28;20215;-45
2022/01/28 04:31:42;;;;;;;23.80;3.73;;;5.00;99.90;;;;;;5063400;28;20675;-41
2022/01/28 04:34:09;;;;;;;22.13;4.00;;;5.00;99.90;;;;;;5063938;28;20198;-41
2022/01/28 04:36:42;;;;;;;15.73;3.30;;;5.00;99.90;;;;;;5063138;28;20217;-41
2022/01/28 04:39:15;;;;;;;14.50;3.53;;;5.00;99.90;;;;;;5066313;28;20285;-44
2022/01/28 04:41:53;;;;;;;13.53;2.40;;;5.00;99.90;;;;;;5062507;28;20202;-47
2022/01/28 04:44:29;;;;;;;17.17;2.60;;;5.00;99.90;;;;;;5051849;28;20217;-42
2022/01/28 04:47:02;;;;;;;11.13;3.00;;;5.10;99.90;;;;;;5063158;28;20226;-42
2022/01/28 04:49:49;;;;;;;10.83;2.70;;;5.10;99.90;;;;;;5064995;28;20202;-41
2022/01/28 04:55:24;;;;;;;15.10;3.07;;;5.20;99.90;;;;;;4984391;28;20209;-41
2022/01/28 04:58:04;;;;;;;12.70;2.83;;;5.30;99.90;;;;;;5049626;28;20236;-46
2022/01/28 05:00:43;;;;;;;17.80;3.50;;;5.20;99.90;;;;;;5050151;28;20212;-43
2022/01/28 05:03:26;;;;;;;11.53;2.70;;;5.20;99.90;;;;;;5061258;28;20635;-43
2022/01/28 05:11:50;;;;;;;13.47;2.53;;;5.30;99.90;;;;;;5065244;28;20702;-41
2022/01/28 05:14:43;;;;;;;14.47;2.80;;;5.30;99.90;;;;;;5051217;28;20210;-45
2022/01/28 05:23:17;;;;;;;10.37;2.73;;;5.30;99.90;;;;;;5061911;28;20214;-44
2022/01/28 05:26:12;;;;;;;16.30;3.63;;;5.30;99.90;;;;;;5063160;28;20596;-41
2022/01/28 05:28:40;;;;;;;13.30;3.07;;;5.30;99.90;;;;;;5047709;28;20204;-41
2022/01/28 05:31:07;;;;;;;15.17;3.00;;;5.20;99.90;;;;;;5063218;28;20221;-44
2022/01/28 05:33:35;;;;;;;13.83;3.00;;;5.20;99.90;;;;;;5062594;28;20260;-45
2022/01/28 05:36:01;;;;;;;18.20;3.47;;;5.10;99.90;;;;;;5063115;28;20215;-40
2022/01/28 05:38:28;;;;;;;14.53;2.43;;;5.10;99.90;;;;;;5062067;28;20206;-42
2022/01/28 05:40:54;;;;;;;14.27;3.77;;;5.10;99.90;;;;;;5050139;28;20190;-43
2022/01/28 05:43:21;;;;;;;16.90;2.73;;;5.10;99.90;;;;;;5064358;28;20213;-42
2022/01/28 05:45:48;;;;;;;16.23;3.80;;;5.10;99.90;;;;;;5038733;28;20223;-42
2022/01/28 05:48:16;;;;;;;17.70;3.27;;;5.10;99.90;;;;;;5064359;28;20301;-42
2022/01/28 05:50:44;;;;;;;20.87;3.40;;;5.10;99.90;;;;;;5056344;28;20203;-42
2022/01/28 05:53:11;;;;;;;20.07;3.43;;;5.10;99.90;;;;;;5061717;28;20210;-40
2022/01/28 05:55:38;;;;;;;16.77;3.43;;;5.10;99.90;;;;;;5045684;28;20230;-40
2022/01/28 05:58:05;;;;;;;16.90;2.90;;;5.10;99.90;;;;;;5060642;28;20203;-40
2022/01/28 06:00:31;;;;;;;17.60;3.53;;;5.10;99.90;;;;;;5040529;28;20211;-39
2022/01/28 06:02:59;;;;;;;18.17;3.03;;;5.20;99.90;;;;;;5050597;28;20588;-44
2022/01/28 06:05:29;;;;;;;12.27;2.80;;;5.20;99.90;;;;;;5057015;28;20819;-42
2022/01/28 06:07:58;;;;;;;13.07;2.93;;;5.10;99.90;;;;;;5060658;28;20218;-44
2022/01/28 06:10:25;;;;;;;10.87;2.40;;;5.10;99.90;;;;;;5052601;28;20198;-44
2022/01/28 06:12:51;;;;;;;15.67;3.07;;;5.10;99.90;;;;;;5053186;28;20685;-41
2022/01/28 06:15:18;;;;;;;13.80;2.63;;;5.10;99.90;;;;;;5047000;28;20198;-41
2022/01/28 06:17:45;;;;;;;16.53;3.33;;;5.10;99.90;;;;;;5055030;28;20794;-42
2022/01/28 06:20:14;;;;;;;10.27;2.63;;;5.10;99.90;;;;;;5057921;28;20211;-40
2022/01/28 06:22:41;;;;;;;15.83;2.87;;;5.20;99.90;;;;;;5057439;28;20209;-40
2022/01/28 06:25:13;;;;;;;13.23;2.40;;;5.20;99.90;;;;;;5062142;28;20199;-41
2022/01/28 06:27:40;;;;;;;16.13;3.83;;;5.10;99.90;;;;;;5053610;28;20222;-44
2022/01/28 06:30:08;;;;;;;15.83;3.67;;;5.20;99.90;;;;;;5054380;28;20721;-41
2022/01/28 06:32:35;;;;;;;12.40;1.77;;;5.20;99.90;;;;;;5054494;28;20211;-42
2022/01/28 06:35:07;;;;;;;18.60;2.80;;;5.10;99.90;;;;;;5056382;28;20202;-43
2022/01/28 06:37:34;;;;;;;18.07;3.37;;;5.20;99.90;;;;;;5061355;28;20278;-41
2022/01/28 06:40:01;;;;;;;16.23;2.53;;;5.20;99.90;;;;;;5062679;28;20210;-41
2022/01/28 06:42:29;;;;;;;11.63;2.70;;;5.10;99.90;;;;;;5060768;28;20198;-41
2022/01/28 06:44:56;;;;;;;14.57;2.37;;;5.10;99.90;;;;;;5055463;28;20213;-43
2022/01/28 06:47:23;;;;;;;15.03;3.20;;;5.10;99.90;;;;;;5042078;28;20218;-42
2022/01/28 06:49:50;;;;;;;17.47;2.83;;;5.10;99.90;;;;;;5053580;28;20206;-44
2022/01/28 06:52:17;;;;;;;13.80;2.83;;;5.10;99.90;;;;;;5053272;28;20229;-49
2022/01/28 06:54:43;;;;;;;13.27;2.90;;;5.10;99.90;;;;;;5050654;28;20213;-45
2022/01/28 06:57:10;;;;;;;15.47;3.00;;;5.10;99.90;;;;;;5054798;28;20543;-42
2022/01/28 06:59:38;;;;;;;12.67;2.83;;;5.10;99.90;;;;;;5048350;28;20191;-47
2022/01/28 07:02:06;;;;;;;10.03;3.33;;;5.10;99.90;;;;;;5044509;28;20702;-44
2022/01/28 07:04:33;;;;;;;11.40;2.40;;;5.10;99.90;;;;;;5055641;28;20183;-41
2022/01/28 07:07:00;;;;;;;13.90;2.50;;;5.10;99.90;;;;;;5042802;28;20234;-42
2022/01/28 07:09:27;;;;;;;11.53;2.53;;;5.10;99.90;;;;;;5052646;28;20178;-44
2022/01/28 07:11:54;;;;;;;18.27;3.43;;;5.00;99.90;;;;;;5059950;28;20187;-43
2022/01/28 07:14:21;;;;;;;15.93;2.73;;;5.00;99.90;;;;;;5047177;28;20194;-45
2022/01/28 07:16:49;;;;;;;14.67;3.70;;;5.00;99.90;;;;;;5048308;28;20214;-43
2022/01/28 07:19:16;;;;;;;15.53;3.30;;;4.90;99.90;;;;;;5055260;28;20642;-44
2022/01/28 07:21:42;;;;;;;15.13;3.03;;;4.90;99.90;;;;;;5052185;28;20207;-42
2022/01/28 07:24:09;;;;;;;19.57;3.07;;;4.90;99.90;;;;;;5060410;28;20199;-44
2022/01/28 07:26:36;;;;;;;14.33;3.33;;;4.90;99.90;;;;;;5059193;28;20251;-43
2022/01/28 07:29:03;;;;;;;16.60;3.47;;;4.80;99.90;;;;;;5047820;28;20217;-45
2022/01/28 07:31:29;;;;;;;16.23;3.17;;;4.80;99.90;;;;;;5059908;28;20191;-43
2022/01/28 07:33:58;;;;;;;14.70;3.73;;;4.80;99.90;;;;;;5048832;28;20208;-42
2022/01/28 07:36:25;;;;;;;13.47;2.77;;;4.80;99.90;;;;;;5049729;28;20222;-43
2022/01/28 07:38:52;;;;;;;19.37;3.90;;;4.80;99.90;;;;;;5063174;28;20664;-42
2022/01/28 07:41:18;;;;;;;12.83;2.90;;;4.80;99.90;;;;;;5058960;28;20206;-42
2022/01/28 07:43:48;;;;;;;15.63;3.30;;;4.80;99.90;;;;;;5059235;28;20197;-45
2022/01/28 07:46:15;;;;;;;17.13;3.60;;;4.80;99.90;;;;;;5047553;28;21038;-44
2022/01/28 07:48:41;;;;;;;13.93;3.73;;;4.80;99.90;;;;;;5047353;28;20267;-43
2022/01/28 07:51:09;;;;;;;28.17;3.40;;;4.70;99.90;;;;;;5052258;28;20206;-42
2022/01/28 07:53:36;;;;;;;21.70;3.67;;;4.80;99.90;;;;;;5056474;28;20186;-48
2022/01/28 07:56:03;;;;;;;13.80;2.83;;;4.70;99.90;;;;;;5057623;28;20584;-43
2022/01/28 07:58:30;;;;;;;13.40;3.10;;;4.80;99.90;;;;;;5047295;28;20199;-43
2022/01/28 08:00:57;;;;;;;17.70;3.20;;;4.80;99.90;;;;;;5033196;28;20669;-45
2022/01/28 08:03:24;;;;;;;13.80;3.67;;;4.80;99.90;;;;;;5054311;28;20187;-46
2022/01/28 08:05:50;;;;;;;13.90;3.17;;;4.80;99.90;;;;;;5043164;28;20219;-45
2022/01/28 08:08:20;;;;;;;15.93;3.57;;;4.80;99.90;;;;;;5044447;28;20218;-45
2022/01/28 08:10:48;;;;;;;14.50;2.60;;;4.80;99.90;;;;;;5057814;28;20191;-47
2022/01/28 08:13:15;;;;;;;22.00;4.50;;;4.80;99.90;;;;;;5058094;28;20205;-44
2022/01/28 08:15:42;;;;;;;14.67;4.10;;;4.80;99.90;;;;;;5053995;28;20211;-45
2022/01/28 08:18:10;;;;;;;12.77;3.33;;;4.80;99.90;;;;;;5046586;28;20293;-44
2022/01/28 08:20:37;;;;;;;13.27;3.07;;;4.80;99.90;;;;;;5041084;28;20198;-43
2022/01/28 08:23:04;;;;;;;17.70;3.83;;;4.80;99.90;;;;;;5050511;28;20706;-46
2022/01/28 08:25:35;;;;;;;24.77;3.73;;;4.80;99.90;;;;;;5059755;28;20222;-44
2022/01/28 08:28:02;;;;;;;17.97;3.40;;;4.90;99.90;;;;;;5059824;28;20225;-44
2022/01/28 08:30:29;;;;;;;18.20;3.50;;;4.90;99.90;;;;;;5059229;28;20195;-46
2022/01/28 08:32:57;;;;;;;21.93;4.20;;;4.90;99.90;;;;;;5048823;28;20206;-48
2022/01/28 08:35:29;;;;;;;16.57;2.90;;;4.90;99.90;;;;;;5042028;28;20231;-43
2022/01/28 08:37:57;;;;;;;21.17;3.97;;;4.90;99.90;;;;;;5054150;28;20207;-46
2022/01/28 08:40:25;;;;;;;22.03;3.83;;;5.00;99.90;;;;;;5058418;28;20862;-46
2022/01/28 08:42:54;;;;;;;13.27;3.80;;;5.00;99.90;;;;;;5059815;28;20202;-44
2022/01/28 08:45:21;;;;;;;21.17;3.50;;;5.00;99.90;;;;;;5057319;28;21028;-44
2022/01/28 08:47:47;;;;;;;21.60;4.27;;;5.00;99.90;;;;;;5054292;28;20215;-46
2022/01/28 08:50:14;;;;;;;27.67;4.47;;;5.10;99.90;;;;;;5048848;28;20199;-44
2022/01/28 08:52:40;;;;;;;22.60;3.77;;;5.10;99.90;;;;;;5046594;28;20903;-44
2022/01/28 08:55:08;;;;;;;21.87;4.33;;;5.10;99.90;;;;;;5052322;28;20195;-47
2022/01/28 08:57:35;;;;;;;13.00;3.23;;;5.20;99.90;;;;;;5055593;28;20183;-44
2022/01/28 09:00:07;;;;;;;20.00;4.53;;;5.20;99.90;;;;;;5055472;28;20194;-44
2022/01/28 09:02:33;;;;;;;15.63;3.93;;;5.20;99.90;;;;;;5052346;28;20245;-48
2022/01/28 09:05:00;;;;;;;18.37;4.00;;;5.20;99.90;;;;;;5053523;28;20209;-46
2022/01/28 09:07:27;;;;;;;19.47;3.83;;;5.20;99.90;;;;;;5043895;28;20199;-44
2022/01/28 09:09:58;;;;;;;20.70;3.47;;;5.30;99.90;;;;;;5062417;28;20195;-41
2022/01/28 09:12:38;;;;;;;18.30;3.33;;;5.30;99.90;;;;;;5059337;28;20911;-42
2022/01/28 09:15:08;;;;;;;20.73;3.20;;;5.40;99.90;;;;;;5060484;28;20733;-43
2022/01/28 09:17:34;;;;;;;15.60;3.57;;;5.50;99.90;;;;;;5046448;28;20257;-45
2022/01/28 09:20:02;;;;;;;14.73;3.30;;;5.60;99.90;;;;;;5052831;28;20209;-45
2022/01/28 09:22:29;;;;;;;16.77;3.10;;;5.60;99.90;;;;;;5044404;28;20217;-44
2022/01/28 09:24:56;;;;;;;15.80;3.50;;;5.60;99.90;;;;;;5061399;28;20198;-47
2022/01/28 09:27:23;;;;;;;18.73;2.93;;;5.60;99.90;;;;;;5055334;28;20206;-46
2022/01/28 09:29:49;;;;;;;20.73;3.80;;;5.50;99.90;;;;;;5060985;28;20652;-46
2022/01/28 09:32:17;;;;;;;15.50;3.87;;;5.60;99.90;;;;;;5057553;28;20202;-44
2022/01/28 09:34:45;;;;;;;27.43;4.73;;;5.60;99.90;;;;;;5056145;28;20206;-43
2022/01/28 09:37:13;;;;;;;15.00;3.17;;;5.60;99.90;;;;;;5048070;28;20336;-44
2022/01/28 09:39:43;;;;;;;17.13;3.00;;;5.60;99.90;;;;;;5064528;28;20554;-44
2022/01/28 09:42:14;;;;;;;18.73;3.20;;;5.70;99.90;;;;;;5056686;28;20195;-45
2022/01/28 09:44:43;;;;;;;18.00;3.30;;;5.70;99.90;;;;;;5057836;28;20209;-43
2022/01/28 09:47:10;;;;;;;17.57;3.70;;;5.70;99.90;;;;;;5054058;28;20226;-44
2022/01/28 09:49:39;;;;;;;14.50;3.63;;;5.70;99.90;;;;;;5063060;28;20226;-47
2022/01/28 09:52:09;;;;;;;17.37;3.17;;;5.80;99.90;;;;;;5051426;28;20222;-46
2022/01/28 09:54:36;;;;;;;13.87;3.17;;;5.80;99.90;;;;;;5044953;28;20208;-43
2022/01/28 09:57:06;;;;;;;15.97;3.73;;;5.80;99.90;;;;;;5054029;28;20233;-44
2022/01/28 09:59:33;;;;;;;19.87;3.63;;;5.80;99.90;;;;;;5047894;28;20709;-45
2022/01/28 10:02:00;;;;;;;24.77;3.47;;;5.90;99.90;;;;;;5045936;28;20276;-42
2022/01/28 10:04:27;;;;;;;15.43;3.77;;;5.90;99.90;;;;;;5060709;28;20286;-43
2022/01/28 10:06:56;;;;;;;17.67;3.60;;;5.90;99.90;;;;;;5039548;28;20219;-44
2022/01/28 10:09:24;;;;;;;16.83;3.90;;;5.90;99.90;;;;;;5034993;28;20211;-42
2022/01/28 10:11:55;;;;;;;18.37;3.67;;;6.00;99.90;;;;;;5056972;28;20302;-44
2022/01/28 10:14:24;;;;;;;10.00;3.20;;;6.00;99.90;;;;;;5058155;28;20248;-47
2022/01/28 10:17:01;;;;;;;16.70;3.17;;;6.00;99.90;;;;;;5053447;28;20211;-43
2022/01/28 10:19:37;;;;;;;19.27;3.20;;;6.00;99.90;;;;;;5057325;28;20199;-44
2022/01/28 10:22:17;;;;;;;17.70;4.00;;;6.10;99.90;;;;;;5046896;28;20203;-45
2022/01/28 10:24:44;;;;;;;20.77;3.47;;;6.20;99.90;;;;;;5037368;28;20252;-42
2022/01/28 10:27:11;;;;;;;10.90;2.20;;;6.20;99.90;;;;;;5062777;28;20586;-43
2022/01/28 10:29:39;;;;;;;17.63;3.27;;;6.20;99.90;;;;;;5055187;28;20937;-44
2022/01/28 10:32:10;;;;;;;18.03;3.50;;;6.20;99.90;;;;;;5053947;28;20195;-43
2022/01/28 10:34:40;;;;;;;13.70;2.60;;;6.20;99.90;;;;;;5052500;28;20880;-47
2022/01/28 10:37:14;;;;;;;17.83;2.87;;;6.20;99.90;;;;;;5043276;28;20215;-44
2022/01/28 10:39:45;;;;;;;14.83;2.90;;;6.30;99.90;;;;;;5042757;28;20209;-43
2022/01/28 10:42:14;;;;;;;13.93;3.07;;;6.30;99.90;;;;;;5043221;28;20265;-44
2022/01/28 10:44:53;;;;;;;13.87;2.60;;;6.30;99.90;;;;;;5049380;28;20237;-45
2022/01/28 10:47:35;;;;;;;11.73;2.90;;;6.40;99.90;;;;;;5051242;28;20260;-46
2022/01/28 10:50:15;;;;;;;16.73;3.60;;;6.40;99.90;;;;;;5063243;28;20201;-47
2022/01/28 10:52:44;;;;;;;9.30;2.17;;;6.40;99.90;;;;;;5043138;28;20998;-45
2022/01/28 10:55:17;;;;;;;8.80;2.27;;;6.50;99.90;;;;;;5033718;28;20599;-46
2022/01/28 10:57:56;;;;;;;10.53;2.60;;;6.50;99.90;;;;;;5039743;28;20308;-43
2022/01/28 11:00:26;;;;;;;8.37;1.93;;;6.50;99.90;;;;;;5047160;28;20198;-45
2022/01/28 11:02:54;;;;;;;11.83;2.40;;;6.60;99.90;;;;;;5047224;28;20198;-44
2022/01/28 11:05:22;;;;;;;13.47;2.53;;;6.60;99.90;;;;;;5058220;28;20241;-50
2022/01/28 11:07:50;;;;;;;13.50;2.73;;;6.70;99.90;;;;;;5039142;28;20198;-43
2022/01/28 11:10:17;;;;;;;7.67;2.63;;;6.80;99.90;;;;;;5053389;28;20622;-43
2022/01/28 11:12:45;;;;;;;11.80;2.67;;;6.90;99.90;;;;;;5044954;28;20210;-45
2022/01/28 11:15:13;;;;;;;16.70;2.77;;;6.90;99.90;;;;;;5054258;28;20203;-45
2022/01/28 11:17:40;;;;;;;10.60;2.60;;;6.80;99.90;;;;;;5050648;28;20205;-44
2022/01/28 11:20:09;;;;;;;11.27;2.30;;;6.80;99.90;;;;;;5055843;28;20191;-44
2022/01/28 11:22:52;;;;;;;15.70;2.63;;;6.70;99.90;;;;;;5041359;28;20206;-44
2022/01/28 11:25:40;;;;;;;13.23;2.60;;;6.70;99.90;;;;;;5050258;28;20203;-44
2022/01/28 11:28:09;;;;;;;14.60;2.57;;;6.70;99.90;;;;;;5039785;28;20210;-43
2022/01/28 11:30:36;;;;;;;13.30;2.90;;;6.70;99.90;;;;;;5045576;28;20218;-44
2022/01/28 11:33:07;;;;;;;10.27;2.77;;;6.80;99.90;;;;;;5043047;28;20182;-47
2022/01/28 11:35:37;;;;;;;10.93;2.83;;;6.80;99.90;;;;;;5054717;28;20215;-45
2022/01/28 11:38:39;;;;;;;11.83;2.07;;;6.90;99.90;;;;;;5051380;28;20214;-45
2022/01/28 11:41:14;;;;;;;10.17;2.47;;;6.80;99.90;;;;;;5051664;28;21004;-42
2022/01/28 11:43:52;;;;;;;8.57;2.30;;;6.80;99.90;;;;;;5045927;28;20281;-43
2022/01/28 11:46:22;;;;;;;14.73;2.87;;;6.90;99.90;;;;;;5060085;28;20226;-42
2022/01/28 11:49:24;;;;;;;9.07;2.90;;;6.90;99.90;;;;;;5047360;28;20341;-43
2022/01/28 11:51:51;;;;;;;6.50;2.10;;;6.90;99.90;;;;;;5044928;28;21766;-46
2022/01/28 11:54:23;;;;;;;10.80;2.10;;;6.90;99.90;;;;;;5043401;28;20206;-45
2022/01/28 11:57:17;;;;;;;8.33;2.40;;;6.90;99.90;;;;;;5045327;28;20218;-41
2022/01/28 11:59:46;;;;;;;6.33;1.73;;;6.90;99.90;;;;;;5036491;28;20207;-44
2022/01/28 12:02:19;;;;;;;10.73;2.00;;;6.90;99.90;;;;;;5055547;28;20266;-43
2022/01/28 12:04:46;;;;;;;11.73;1.97;;;6.90;99.90;;;;;;5045062;28;20215;-42
2022/01/28 12:07:18;;;;;;;9.20;2.40;;;7.00;99.90;;;;;;5044860;28;20235;-46
2022/01/28 12:09:47;;;;;;;6.77;2.17;;;7.10;99.90;;;;;;5044808;28;20588;-43
2022/01/28 12:12:24;;;;;;;10.33;2.10;;;7.10;99.90;;;;;;5053278;28;20211;-44
2022/01/28 12:14:57;;;;;;;5.93;1.30;;;7.00;99.90;;;;;;5049715;28;20195;-42
2022/01/28 12:17:39;;;;;;;11.33;2.70;;;7.10;99.90;;;;;;5045811;28;20607;-44
2022/01/28 12:20:22;;;;;;;11.27;2.70;;;7.10;99.90;;;;;;5057611;28;20194;-46
2022/01/28 12:23:26;;;;;;;13.27;2.63;;;7.10;99.90;;;;;;5050330;28;20207;-47
2022/01/28 12:26:00;;;;;;;9.13;2.60;;;7.10;99.90;;;;;;5024229;28;20350;-43
2022/01/28 12:28:43;;;;;;;10.50;2.70;;;7.10;99.90;;;;;;5059765;28;20214;-44
2022/01/28 12:31:13;;;;;;;10.20;2.23;;;7.20;99.90;;;;;;5050560;28;20203;-43
2022/01/28 12:33:42;;;;;;;12.27;2.60;;;7.20;99.90;;;;;;5038798;28;20199;-46
2022/01/28 12:36:10;;;;;;;10.17;2.87;;;7.20;99.90;;;;;;5055302;28;20233;-45
2022/01/28 12:38:42;;;;;;;19.03;3.23;;;7.30;99.90;;;;;;5047494;28;20595;-44
2022/01/28 12:41:10;;;;;;;14.67;2.70;;;7.20;99.90;;;;;;5054387;28;20217;-46
2022/01/28 12:43:39;;;;;;;12.20;2.33;;;7.20;99.90;;;;;;5055972;28;20214;-44
2022/01/28 12:46:08;;;;;;;15.43;4.20;;;7.30;99.90;;;;;;5059142;28;20224;-45
2022/01/28 12:48:36;;;;;;;17.70;3.00;;;7.30;99.90;;;;;;5046292;28;20218;-45
2022/01/28 12:51:04;;;;;;;12.97;2.47;;;7.30;99.90;;;;;;5056820;28;20195;-43
2022/01/28 12:53:35;;;;;;;7.63;2.40;;;7.30;99.90;;;;;;5055301;28;20199;-43
2022/01/28 12:56:04;;;;;;;13.63;2.43;;;7.30;99.90;;;;;;5052840;28;20241;-42
2022/01/28 12:58:33;;;;;;;12.60;2.33;;;7.30;99.90;;;;;;5052848;28;20206;-41
2022/01/28 13:01:09;;;;;;;15.33;3.13;;;7.20;99.90;;;;;;5060645;28;20191;-46
2022/01/28 13:03:45;;;;;;;10.70;2.27;;;7.20;99.90;;;;;;5044110;28;20567;-44
2022/01/28 13:06:27;;;;;;;13.53;2.80;;;7.20;99.90;;;;;;5050055;28;20226;-46
2022/01/28 13:08:54;;;;;;;10.93;2.40;;;7.30;99.90;;;;;;5056630;28;20218;-42
2022/01/28 13:11:21;;;;;;;11.37;3.20;;;7.30;99.90;;;;;;5038177;28;20600;-43
2022/01/28 13:13:50;;;;;;;12.50;2.93;;;7.30;99.90;;;;;;5047921;28;20882;-42
2022/01/28 13:16:34;;;;;;;10.43;2.57;;;7.30;99.90;;;;;;5060033;28;20650;-46
2022/01/28 13:19:03;;;;;;;15.63;2.93;;;7.30;99.90;;;;;;5045295;28;20683;-44
2022/01/28 13:21:30;;;;;;;15.00;2.97;;;7.20;99.90;;;;;;5056290;28;20183;-43
2022/01/28 13:24:13;;;;;;;13.07;2.70;;;7.20;99.90;;;;;;5057789;28;20261;-44
2022/01/28 13:26:58;;;;;;;6.77;2.50;;;7.20;99.90;;;;;;5052038;28;20334;-48
2022/01/28 13:29:34;;;;;;;9.20;2.63;;;7.20;99.90;;;;;;5052236;28;20210;-43
2022/01/28 13:32:05;;;;;;;12.37;3.07;;;7.30;99.90;;;;;;5053680;28;20234;-43
2022/01/28 13:34:46;;;;;;;13.90;2.77;;;7.30;99.90;;;;;;5041527;28;20931;-43
2022/01/28 13:37:14;;;;;;;12.63;3.13;;;7.40;99.90;;;;;;5061254;28;20660;-44
2022/01/28 13:39:43;;;;;;;18.87;3.40;;;7.40;99.90;;;;;;5055077;28;20175;-45
2022/01/28 13:42:13;;;;;;;12.43;3.00;;;7.40;99.90;;;;;;5057888;28;20202;-46
2022/01/28 13:44:43;;;;;;;17.07;2.63;;;7.40;99.90;;;;;;5054529;28;20205;-43
2022/01/28 13:47:12;;;;;;;14.97;3.10;;;7.40;99.90;;;;;;5049265;28;20250;-44
2022/01/28 13:49:40;;;;;;;20.43;3.60;;;7.40;99.90;;;;;;5046106;28;21947;-43
2022/01/28 13:52:14;;;;;;;10.33;2.80;;;7.40;99.90;;;;;;5063155;28;20219;-44